createdAt,value
2022-12-22T00:00:19.000Z,7.2
2022-12-22T00:03:52.000Z,8.4
2022-12-22T00:07:24.000Z,8.5
2022-12-22T00:11:04.000Z,8.3
2022-12-22T00:14:36.000Z,8.5
2022-12-22T00:17:28.000Z,8.4
2022-12-22T00:21:00.000Z,7.6
2022-12-22T00:24:33.000Z,8.6
2022-12-22T00:28:05.000Z,8.4
2022-12-22T00:31:38.000Z,7.8
2022-12-22T00:35:11.000Z,7.7
2022-12-22T00:38:43.000Z,7.8
2022-12-22T00:42:16.000Z,9.1
2022-12-22T00:45:48.000Z,8.4
2022-12-22T00:49:21.000Z,9.4
2022-12-22T00:52:54.000Z,9
2022-12-22T00:55:45.000Z,7.8
2022-12-22T00:59:17.000Z,8.5
2022-12-22T01:02:50.000Z,7.1
2022-12-22T01:06:23.000Z,7
2022-12-22T01:09:55.000Z,6.8
2022-12-22T01:13:28.000Z,6.7
2022-12-22T01:17:01.000Z,5.8
2022-12-22T01:20:33.000Z,5.5
2022-12-22T01:24:06.000Z,5.3
2022-12-22T01:27:39.000Z,5
2022-12-22T01:31:11.000Z,4.9
2022-12-22T01:34:03.000Z,4.7
2022-12-22T01:37:35.000Z,4.4
2022-12-22T01:41:08.000Z,4
2022-12-22T01:44:40.000Z,3.6
2022-12-22T01:48:13.000Z,3.4
2022-12-22T01:51:46.000Z,2.8
2022-12-22T01:55:19.000Z,2.6
2022-12-22T01:58:51.000Z,2.2
2022-12-22T02:02:24.000Z,2.2
2022-12-22T02:05:57.000Z,2.2
2022-12-22T02:09:29.000Z,2.2
2022-12-22T02:12:21.000Z,2.2
2022-12-22T02:15:53.000Z,1.9
2022-12-22T02:19:26.000Z,1.8
2022-12-22T02:22:59.000Z,2.3
2022-12-22T02:26:31.000Z,2.1
2022-12-22T02:30:04.000Z,2
2022-12-22T02:33:38.000Z,2.1
2022-12-22T02:37:10.000Z,2.2
2022-12-22T02:40:43.000Z,1.9
2022-12-22T02:44:15.000Z,2.1
2022-12-22T02:47:48.000Z,2.2
2022-12-22T02:50:39.000Z,1.8
2022-12-22T02:54:12.000Z,2.1
2022-12-22T02:57:45.000Z,2.1
2022-12-22T03:01:18.000Z,2.1
2022-12-22T03:04:51.000Z,1.7
2022-12-22T03:08:24.000Z,1.9
2022-12-22T03:11:56.000Z,1.9
2022-12-22T03:15:29.000Z,2
2022-12-22T03:19:02.000Z,1.9
2022-12-22T03:22:34.000Z,1.7
2022-12-22T03:26:07.000Z,1.8
2022-12-22T03:28:58.000Z,1.7
2022-12-22T03:32:30.000Z,1.7
2022-12-22T03:36:03.000Z,1.6
2022-12-22T03:39:36.000Z,1.6
2022-12-22T03:43:08.000Z,1.7
2022-12-22T03:46:41.000Z,1.7
2022-12-22T03:50:14.000Z,1.6
2022-12-22T03:53:47.000Z,1.4
2022-12-22T03:57:19.000Z,1.3
2022-12-22T04:00:52.000Z,1.1
2022-12-22T04:04:25.000Z,1.1
2022-12-22T04:07:16.000Z,1
2022-12-22T04:10:48.000Z,0.9
2022-12-22T04:14:21.000Z,0.7
2022-12-22T04:18:00.000Z,0.7
2022-12-22T04:21:32.000Z,0.6
2022-12-22T04:25:05.000Z,0.7
2022-12-22T04:28:38.000Z,0.5
2022-12-22T04:32:10.000Z,0.6
2022-12-22T04:35:43.000Z,0.6
2022-12-22T04:39:16.000Z,0.8
2022-12-22T04:42:49.000Z,0.9
2022-12-22T04:45:40.000Z,0.9
2022-12-22T04:49:13.000Z,1.1
2022-12-22T04:52:46.000Z,1.4
2022-12-22T04:56:18.000Z,1.3
2022-12-22T04:59:51.000Z,1.4
2022-12-22T05:03:24.000Z,1.5
2022-12-22T05:06:57.000Z,1.8
2022-12-22T05:10:30.000Z,1.8
2022-12-22T05:14:02.000Z,1.5
2022-12-22T05:17:35.000Z,2.1
2022-12-22T05:21:08.000Z,2.3
2022-12-22T05:23:59.000Z,2.5
2022-12-22T05:27:34.000Z,2.6
2022-12-22T05:31:06.000Z,2.7
2022-12-22T05:34:39.000Z,2.8
2022-12-22T05:38:12.000Z,2.5
2022-12-22T05:41:45.000Z,3.2
2022-12-22T05:45:17.000Z,3.6
2022-12-22T05:48:50.000Z,4
2022-12-22T05:52:22.000Z,3.4
2022-12-22T05:55:55.000Z,3.7
2022-12-22T05:59:28.000Z,3.9
2022-12-22T06:02:19.000Z,4.2
2022-12-22T06:05:58.000Z,3.8
2022-12-22T06:09:31.000Z,3.7
2022-12-22T06:13:04.000Z,3.5
2022-12-22T06:16:36.000Z,2.8
2022-12-22T06:20:09.000Z,3.2
2022-12-22T06:23:41.000Z,2.9
2022-12-22T06:27:17.000Z,2.8
2022-12-22T06:30:50.000Z,2.7
2022-12-22T06:34:23.000Z,2.5
2022-12-22T06:37:58.000Z,2.2
2022-12-22T06:40:49.000Z,2.2
2022-12-22T06:44:21.000Z,1.8
2022-12-22T06:47:54.000Z,2.1
2022-12-22T06:51:27.000Z,2.3
2022-12-22T06:54:59.000Z,2.3
2022-12-22T06:58:32.000Z,2.4
2022-12-22T07:02:04.000Z,2.2
2022-12-22T07:05:37.000Z,2
2022-12-22T07:09:10.000Z,1.8
2022-12-22T07:12:43.000Z,1.7
2022-12-22T07:16:15.000Z,2
2022-12-22T07:19:07.000Z,2.4
2022-12-22T07:22:39.000Z,1.6
2022-12-22T07:26:12.000Z,1.7
2022-12-22T07:29:45.000Z,1.7
2022-12-22T07:33:18.000Z,1.7
2022-12-22T07:36:50.000Z,1.9
2022-12-22T07:40:23.000Z,1.3
2022-12-22T07:43:56.000Z,1.2
2022-12-22T07:47:28.000Z,1.4
2022-12-22T07:51:01.000Z,1.6
2022-12-22T07:54:34.000Z,1.4
2022-12-22T07:57:26.000Z,1.5
2022-12-22T08:00:58.000Z,1.5
2022-12-22T08:04:38.000Z,1.3
2022-12-22T08:08:10.000Z,2.5
2022-12-22T08:11:43.000Z,5.5
2022-12-22T08:15:16.000Z,1.9
2022-12-22T08:18:49.000Z,2.3
2022-12-22T08:22:21.000Z,2
2022-12-22T08:25:54.000Z,1.9
2022-12-22T08:29:27.000Z,2.4
2022-12-22T08:32:59.000Z,2
2022-12-22T08:35:51.000Z,2
2022-12-22T08:39:32.000Z,1.9
2022-12-22T08:43:05.000Z,1.8
2022-12-22T08:46:38.000Z,1.8
2022-12-22T08:50:10.000Z,1.4
2022-12-22T08:53:43.000Z,1.3
2022-12-22T08:57:31.000Z,1.3
2022-12-22T09:01:03.000Z,1.3
2022-12-22T09:04:37.000Z,1.4
2022-12-22T09:08:09.000Z,1.3
2022-12-22T09:11:42.000Z,1.3
2022-12-22T09:14:33.000Z,1.2
2022-12-22T09:18:06.000Z,1.1
2022-12-22T09:21:38.000Z,0.9
2022-12-22T09:25:11.000Z,0.9
2022-12-22T09:28:45.000Z,0.9
2022-12-22T09:32:17.000Z,0.9
2022-12-22T09:35:50.000Z,0.8
2022-12-22T09:39:22.000Z,0.7
2022-12-22T09:42:55.000Z,0.9
2022-12-22T09:46:28.000Z,0.8
2022-12-22T09:50:01.000Z,0.7
2022-12-22T09:52:52.000Z,0.7
2022-12-22T09:56:24.000Z,0.5
2022-12-22T09:59:57.000Z,0.6
2022-12-22T10:03:30.000Z,0.6
2022-12-22T10:07:03.000Z,0.6
2022-12-22T10:10:36.000Z,0.8
2022-12-22T10:14:08.000Z,0.6
2022-12-22T10:17:41.000Z,0.6
2022-12-22T10:21:14.000Z,0.6
2022-12-22T10:24:47.000Z,0.4
2022-12-22T10:28:30.000Z,0.2
2022-12-22T10:31:21.000Z,1
2022-12-22T10:34:54.000Z,0.2
2022-12-22T10:38:26.000Z,0.7
2022-12-22T10:41:59.000Z,0.4
2022-12-22T10:45:32.000Z,0.4
2022-12-22T10:49:09.000Z,0.8
2022-12-22T10:52:42.000Z,0.4
2022-12-22T10:56:14.000Z,0.8
2022-12-22T10:59:47.000Z,0.3
2022-12-22T11:03:20.000Z,0.5
2022-12-22T11:06:53.000Z,0.3
2022-12-22T11:09:44.000Z,0.2
2022-12-22T11:13:16.000Z,0.2
2022-12-22T11:16:49.000Z,1.2
2022-12-22T11:20:22.000Z,0.4
2022-12-22T11:23:54.000Z,0.6
2022-12-22T11:27:27.000Z,0.5
2022-12-22T11:31:00.000Z,0.9
2022-12-22T11:34:32.000Z,0.8
2022-12-22T11:38:05.000Z,0.8
2022-12-22T11:41:37.000Z,0.7
2022-12-22T11:45:10.000Z,0.7
2022-12-22T11:48:01.000Z,0.7
2022-12-22T11:51:34.000Z,0.6
2022-12-22T11:55:06.000Z,0.5
2022-12-22T11:58:39.000Z,0.5
2022-12-22T12:02:12.000Z,0.6
2022-12-22T12:05:45.000Z,0.8
2022-12-22T12:09:24.000Z,0.7
2022-12-22T12:12:57.000Z,0.7
2022-12-22T12:16:29.000Z,0.9
2022-12-22T12:20:02.000Z,0.9
2022-12-22T12:23:35.000Z,1.3
2022-12-22T12:26:26.000Z,1.3
2022-12-22T12:29:59.000Z,1.1
2022-12-22T12:34:03.000Z,1.4
2022-12-22T12:37:35.000Z,1.3
2022-12-22T12:41:08.000Z,1.5
2022-12-22T12:44:41.000Z,1.4
2022-12-22T12:48:14.000Z,1.5
2022-12-22T12:51:46.000Z,1.6
2022-12-22T12:55:19.000Z,1.7
2022-12-22T12:58:58.000Z,1.7
2022-12-22T13:02:30.000Z,1.9
2022-12-22T13:05:22.000Z,2
2022-12-22T13:08:55.000Z,1.9
2022-12-22T13:13:51.000Z,2.2
2022-12-22T13:17:23.000Z,2.1
2022-12-22T13:20:56.000Z,1.8
2022-12-22T13:25:15.000Z,1.9
2022-12-22T13:28:48.000Z,2
2022-12-22T13:32:21.000Z,3.2
2022-12-22T13:35:53.000Z,2.9
2022-12-22T13:39:26.000Z,2.9
2022-12-22T13:42:59.000Z,3.9
2022-12-22T13:45:50.000Z,3.1
2022-12-22T13:49:23.000Z,2.9
2022-12-22T13:53:33.000Z,2.8
2022-12-22T13:57:34.000Z,3.1
2022-12-22T14:01:06.000Z,4.5
2022-12-22T14:04:40.000Z,3.2
2022-12-22T14:08:17.000Z,3.1
2022-12-22T14:11:50.000Z,3.2
2022-12-22T14:15:23.000Z,2.7
2022-12-22T14:18:55.000Z,2.7
2022-12-22T14:22:28.000Z,3.5
2022-12-22T14:25:20.000Z,3.1
2022-12-22T14:28:52.000Z,5.4
2022-12-22T14:32:25.000Z,3.5
2022-12-22T14:35:57.000Z,5.5
2022-12-22T14:39:32.000Z,4.1
2022-12-22T14:43:04.000Z,5.5
2022-12-22T14:46:37.000Z,7
2022-12-22T14:50:10.000Z,6.5
2022-12-22T14:53:42.000Z,7.9
2022-12-22T14:57:15.000Z,4.8
2022-12-22T15:00:47.000Z,4.9
2022-12-22T15:03:39.000Z,8.6
2022-12-22T15:07:12.000Z,12.1
2022-12-22T15:12:12.000Z,6
2022-12-22T15:15:44.000Z,6.3
2022-12-22T15:19:17.000Z,6.6
2022-12-22T15:22:50.000Z,5.9
2022-12-22T15:26:23.000Z,5.1
2022-12-22T15:30:02.000Z,6.5
2022-12-22T15:33:35.000Z,7
2022-12-22T15:37:08.000Z,6.9
2022-12-22T15:40:40.000Z,5.9
2022-12-22T15:43:31.000Z,5.2
2022-12-22T15:47:24.000Z,5.4
2022-12-22T15:50:56.000Z,6.5
2022-12-22T15:54:29.000Z,15.1
2022-12-22T15:58:02.000Z,14
2022-12-22T16:01:34.000Z,12.1
2022-12-22T16:05:07.000Z,11.2
2022-12-22T16:08:40.000Z,9.3
2022-12-22T16:12:13.000Z,8.7
2022-12-22T16:15:45.000Z,6.6
2022-12-22T16:19:18.000Z,7.6
2022-12-22T16:22:09.000Z,7.5
2022-12-22T16:25:41.000Z,5.8
2022-12-22T16:29:14.000Z,6.5
2022-12-22T16:32:47.000Z,8.5
2022-12-22T16:36:19.000Z,6.7
2022-12-22T16:39:52.000Z,6.3
2022-12-22T16:43:24.000Z,7.7
2022-12-22T16:47:13.000Z,13.2
2022-12-22T16:50:46.000Z,8.7
2022-12-22T16:54:19.000Z,7.6
2022-12-22T16:57:51.000Z,8
2022-12-22T17:00:42.000Z,7.6
2022-12-22T17:04:15.000Z,8.2
2022-12-22T17:07:48.000Z,7.8
2022-12-22T17:11:21.000Z,9
2022-12-22T17:14:53.000Z,10.8
2022-12-22T17:18:26.000Z,9.9
2022-12-22T17:21:59.000Z,12.4
2022-12-22T17:25:31.000Z,9.2
2022-12-22T17:29:04.000Z,6.5
2022-12-22T17:32:37.000Z,7
2022-12-22T17:36:10.000Z,7.9
2022-12-22T17:39:02.000Z,12.7
2022-12-22T17:42:35.000Z,22
2022-12-22T17:46:08.000Z,15.5
2022-12-22T17:49:41.000Z,15.6
2022-12-22T17:53:14.000Z,9
2022-12-22T17:56:47.000Z,9.9
2022-12-22T18:00:19.000Z,21.1
2022-12-22T18:03:52.000Z,20.4
2022-12-22T18:07:25.000Z,11.2
2022-12-22T18:11:08.000Z,13.1
2022-12-22T18:14:41.000Z,9.4
2022-12-22T18:17:32.000Z,9.4
2022-12-22T18:21:05.000Z,8.8
2022-12-22T18:24:37.000Z,7.7
2022-12-22T18:28:10.000Z,6.9
2022-12-22T18:31:43.000Z,6
2022-12-22T18:35:15.000Z,4.5
2022-12-22T18:38:48.000Z,4.1
2022-12-22T18:42:27.000Z,4.3
2022-12-22T18:45:59.000Z,4.7
2022-12-22T18:49:32.000Z,5.5
2022-12-22T18:53:05.000Z,6.5
2022-12-22T18:55:56.000Z,6.2
2022-12-22T18:59:29.000Z,6.9
2022-12-22T19:03:02.000Z,9.2
2022-12-22T19:06:34.000Z,8.7
2022-12-22T19:10:07.000Z,5
2022-12-22T19:13:40.000Z,7.9
2022-12-22T19:17:12.000Z,4
2022-12-22T19:20:45.000Z,5.1
2022-12-22T19:24:18.000Z,4.2
2022-12-22T19:27:50.000Z,4.5
2022-12-22T19:31:23.000Z,4.9
2022-12-22T19:34:15.000Z,6.4
2022-12-22T19:37:47.000Z,6.7
2022-12-22T19:41:20.000Z,7.6
2022-12-22T19:44:52.000Z,7.9
2022-12-22T19:48:32.000Z,8.7
2022-12-22T19:52:05.000Z,10.2
2022-12-22T19:55:37.000Z,10
2022-12-22T19:59:10.000Z,9.5
2022-12-22T20:02:51.000Z,15.8
2022-12-22T20:06:24.000Z,10.9
2022-12-22T20:09:57.000Z,12.5
2022-12-22T20:12:48.000Z,12.3
2022-12-22T20:16:21.000Z,14.5
2022-12-22T20:19:54.000Z,18.6
2022-12-22T20:23:26.000Z,10.7
2022-12-22T20:26:59.000Z,12.4
2022-12-22T20:30:32.000Z,12.2
2022-12-22T20:34:04.000Z,14.7
2022-12-22T20:37:37.000Z,9.8
2022-12-22T20:41:10.000Z,11.9
2022-12-22T20:44:42.000Z,10
2022-12-22T20:48:29.000Z,8.6
2022-12-22T20:51:20.000Z,19.5
2022-12-22T20:54:53.000Z,11.7
2022-12-22T20:58:26.000Z,15.7
2022-12-22T21:01:58.000Z,10
2022-12-22T21:05:32.000Z,5.3
2022-12-22T21:09:04.000Z,6.4
2022-12-22T21:12:37.000Z,7.8
2022-12-22T21:16:10.000Z,4.6
2022-12-22T21:19:45.000Z,6.5
2022-12-22T21:23:17.000Z,5.5
2022-12-22T21:26:50.000Z,5.7
2022-12-22T21:29:41.000Z,5.5
2022-12-22T21:33:14.000Z,4.9
2022-12-22T21:36:47.000Z,5.6
2022-12-22T21:40:19.000Z,5.7
2022-12-22T21:43:52.000Z,5.3
2022-12-22T21:47:24.000Z,5.6
2022-12-22T21:50:57.000Z,5.5
2022-12-22T21:54:30.000Z,5.5
2022-12-22T21:58:02.000Z,5.1
2022-12-22T22:01:35.000Z,5.3
2022-12-22T22:05:08.000Z,5
2022-12-22T22:08:00.000Z,5.9
2022-12-22T22:11:32.000Z,4.5
2022-12-22T22:15:05.000Z,4.6
2022-12-22T22:18:37.000Z,3.7
2022-12-22T22:22:10.000Z,4
2022-12-22T22:25:43.000Z,3.6
2022-12-22T22:29:15.000Z,3.2
2022-12-22T22:32:48.000Z,3.1
2022-12-22T22:36:21.000Z,2.6
2022-12-22T22:39:54.000Z,2.3
2022-12-22T22:43:26.000Z,2
2022-12-22T22:46:17.000Z,2.1
2022-12-22T22:49:50.000Z,2.1
2022-12-22T22:53:23.000Z,2.1
2022-12-22T22:56:56.000Z,1.9
2022-12-22T23:00:28.000Z,1.8
2022-12-22T23:04:01.000Z,1.5
2022-12-22T23:07:34.000Z,1.9
2022-12-22T23:11:06.000Z,1.6
2022-12-22T23:14:39.000Z,1.5
2022-12-22T23:18:12.000Z,1.1
2022-12-22T23:21:45.000Z,1.3
2022-12-22T23:24:36.000Z,1.3
2022-12-22T23:28:09.000Z,1.4
2022-12-22T23:31:41.000Z,1.3
2022-12-22T23:35:14.000Z,1.1
2022-12-22T23:38:47.000Z,1.3
2022-12-22T23:42:52.000Z,1.4
2022-12-22T23:46:24.000Z,1.2
2022-12-22T23:49:57.000Z,1
2022-12-22T23:53:30.000Z,1.1
2022-12-22T23:57:02.000Z,1.1
